Time;durP1;ratioP1;P1;durP2;ratioP2;P2;SDS_P1;SDS_P2;PMS_P1;PMS_P2;Temp;Humidity;BMP_temperature;BMP_pressure;BME280_temperature;BME280_humidity;BME280_pressure;Samples;Min_cycle;Max_cycle;Signal;HPM_P1;HPM_P2
2022/09/13 00:01:04;;;;;;;11.60;8.82;;;;;;;15.47;100.00;100893.75;5095208;28;20432;-45
2022/09/13 00:03:31;;;;;;;13.45;9.20;;;;;;;15.46;100.00;100892.00;5095937;28;20031;-46
2022/09/13 00:05:56;;;;;;;15.32;10.00;;;;;;;15.50;100.00;100892.91;5095979;28;20085;-46
2022/09/13 00:08:22;;;;;;;14.68;10.02;;;;;;;15.45;100.00;100896.34;5094856;28;20024;-47
2022/09/13 00:10:48;;;;;;;13.20;9.90;;;;;;;15.44;100.00;100891.09;5096045;28;20530;-44
2022/09/13 00:13:15;;;;;;;15.88;9.82;;;;;;;15.38;100.00;100898.84;5095785;28;20034;-45
2022/09/13 00:15:48;;;;;;;12.68;10.18;;;;;;;15.44;100.00;100899.78;5097588;28;20107;-44
2022/09/13 00:18:14;;;;;;;15.00;10.60;;;;;;;15.41;100.00;100899.72;5104556;28;20031;-43
2022/09/13 00:20:40;;;;;;;13.82;10.80;;;;;;;15.39;100.00;100895.38;5095436;28;20364;-44
2022/09/13 00:23:05;;;;;;;15.15;11.15;;;;;;;15.44;100.00;100889.38;5094613;28;20503;-44
2022/09/13 00:25:30;;;;;;;15.25;10.18;;;;;;;15.46;100.00;100881.59;5095514;28;20024;-44
2022/09/13 00:27:56;;;;;;;13.95;10.82;;;;;;;15.45;100.00;100887.66;5095653;28;20070;-45
2022/09/13 00:30:21;;;;;;;13.32;10.15;;;;;;;15.47;100.00;100878.16;5094495;28;20089;-44
2022/09/13 00:32:46;;;;;;;16.48;10.82;;;;;;;15.42;100.00;100874.66;5094785;28;20381;-47
2022/09/13 00:35:12;;;;;;;14.02;9.95;;;;;;;15.44;100.00;100871.22;5095255;28;20035;-44
2022/09/13 00:37:38;;;;;;;13.35;10.00;;;;;;;15.47;100.00;100868.63;5094430;28;20040;-45
2022/09/13 00:40:04;;;;;;;12.48;9.57;;;;;;;15.50;100.00;100865.19;5095237;28;20382;-45
2022/09/13 00:42:34;;;;;;;14.47;9.70;;;;;;;15.54;100.00;100855.72;5095338;28;20024;-45
2022/09/13 00:45:11;;;;;;;14.60;10.77;;;;;;;15.66;100.00;100858.44;5094342;28;20040;-44
2022/09/13 00:47:42;;;;;;;15.82;11.25;;;;;;;15.75;99.63;100857.63;5095076;28;20036;-50
2022/09/13 00:50:23;;;;;;;16.13;10.68;;;;;;;15.86;97.89;100862.94;5094123;28;20024;-45
2022/09/13 00:52:54;;;;;;;13.57;10.82;;;;;;;16.00;95.18;100855.22;5095173;28;20024;-48
2022/09/13 00:55:30;;;;;;;14.95;10.73;;;;;;;16.07;93.79;100855.28;5094850;28;20070;-44
2022/09/13 00:58:01;;;;;;;13.30;11.13;;;;;;;16.16;92.60;100854.50;5094216;28;20111;-44
2022/09/13 01:00:27;;;;;;;15.43;11.23;;;;;;;16.21;92.31;100851.94;5094675;28;20115;-45
2022/09/13 01:02:57;;;;;;;16.92;10.85;;;;;;;16.22;92.78;100845.88;5095029;28;20099;-45
2022/09/13 01:05:27;;;;;;;14.13;10.75;;;;;;;16.26;91.83;100851.09;5094019;28;20111;-45
2022/09/13 01:07:55;;;;;;;14.13;11.05;;;;;;;16.28;91.85;100843.28;5094835;28;20111;-46
2022/09/13 01:10:22;;;;;;;12.80;10.38;;;;;;;16.28;91.35;100846.78;5094455;28;20069;-45
2022/09/13 01:13:13;;;;;;;13.38;10.88;;;;;;;16.34;90.84;100853.72;5093883;28;20051;-45
2022/09/13 01:15:39;;;;;;;15.15;10.48;;;;;;;16.35;90.60;100841.63;5094636;28;20028;-46
2022/09/13 01:18:06;;;;;;;15.52;11.30;;;;;;;16.40;89.40;100843.38;5093780;28;20032;-45
2022/09/13 01:21:03;;;;;;;15.20;10.77;;;;;;;16.41;90.31;100852.91;5094250;28;20565;-44
2022/09/13 01:23:50;;;;;;;13.85;11.52;;;;;;;16.41;89.75;100849.44;5094296;28;20032;-46
2022/09/13 01:26:33;;;;;;;14.23;10.57;;;;;;;16.37;90.96;100848.56;5093756;28;20114;-47
2022/09/13 01:29:01;;;;;;;15.27;11.25;;;;;;;16.40;89.34;100845.97;5094360;28;20036;-45
2022/09/13 01:31:52;;;;;;;15.63;11.65;;;;;;;16.41;89.80;100850.31;5094226;28;20032;-45
2022/09/13 01:34:42;;;;;;;15.10;10.82;;;;;;;16.34;90.62;100848.53;5093452;28;20028;-47
2022/09/13 01:37:10;;;;;;;14.93;11.30;;;;;;;16.25;91.69;100845.88;5094068;28;20067;-46
2022/09/13 01:39:57;;;;;;;13.52;11.10;;;;;;;16.20;92.61;100844.97;5093214;28;20058;-44
2022/09/13 01:42:54;;;;;;;16.55;11.18;;;;;;;16.17;92.48;100844.97;5094023;28;20028;-45
2022/09/13 01:45:37;;;;;;;15.32;11.70;;;;;;;16.20;91.38;100847.59;5092765;28;20044;-47
2022/09/13 01:48:21;;;;;;;14.60;11.32;;;;;;;16.17;91.43;100840.63;5093045;28;20039;-45
2022/09/13 01:51:09;;;;;;;14.25;11.38;;;;;;;16.11;93.13;100838.88;5094217;28;20124;-45
2022/09/13 01:53:49;;;;;;;;;;;;;;;16.21;92.19;100839.78;5093587;28;20055;-45
2022/09/13 01:56:22;;;;;;;15.90;11.70;;;;;;;16.05;93.81;100841.44;5093728;28;19919;-45
2022/09/13 01:58:55;;;;;;;16.08;11.88;;;;;;;16.02;94.18;100831.00;5093706;28;20509;-45
2022/09/13 02:01:30;;;;;;;14.93;11.15;;;;;;;16.01;95.04;100834.47;5092823;28;20030;-45
2022/09/13 02:04:05;;;;;;;14.15;10.95;;;;;;;15.97;96.41;100832.69;5093873;28;20027;-47
2022/09/13 02:06:36;;;;;;;14.18;11.48;;;;;;;15.96;94.83;100834.44;5093577;28;20020;-45
2022/09/13 02:09:12;;;;;;;14.55;11.27;;;;;;;15.86;96.73;100829.16;5092761;28;20031;-44
2022/09/13 02:11:40;;;;;;;18.25;11.32;;;;;;;15.86;96.60;100831.75;5093348;28;20417;-46
2022/09/13 02:14:17;;;;;;;14.02;10.95;;;;;;;15.90;96.79;100830.91;5093357;28;20402;-45
2022/09/13 02:17:02;;;;;;;15.63;11.73;;;;;;;15.90;97.16;100838.72;5093664;28;20081;-45
2022/09/13 02:19:50;;;;;;;14.00;11.18;;;;;;;15.91;96.87;100830.06;5095840;28;20479;-49
2022/09/13 02:22:20;;;;;;;14.55;10.95;;;;;;;15.87;99.23;100838.69;5092744;28;20028;-46
2022/09/13 02:24:51;;;;;;;14.43;12.27;;;;;;;15.79;99.04;100849.00;5093661;28;20062;-46
2022/09/13 02:27:24;;;;;;;13.23;11.45;;;;;;;15.77;99.36;100846.38;5093152;28;20027;-45
2022/09/13 02:29:54;;;;;;;13.52;11.68;;;;;;;15.79;99.54;100839.47;5092643;28;20031;-45
2022/09/13 02:32:37;;;;;;;13.35;11.82;;;;;;;15.80;99.40;100843.81;5092970;28;20028;-45
2022/09/13 02:35:24;;;;;;;15.23;11.38;;;;;;;15.78;99.62;100832.53;5093400;28;20031;-45
2022/09/13 02:37:57;;;;;;;14.23;11.82;;;;;;;15.79;99.46;100838.63;5093178;28;20429;-44
2022/09/13 02:40:27;;;;;;;15.25;11.18;;;;;;;15.77;99.19;100835.97;5092874;28;20153;-45
2022/09/13 02:43:02;;;;;;;14.48;10.93;;;;;;;15.78;99.63;100840.31;5092681;28;20024;-45
2022/09/13 02:45:41;;;;;;;15.07;11.70;;;;;;;15.75;100.00;100842.91;5092854;28;20063;-47
2022/09/13 02:48:27;;;;;;;17.15;11.60;;;;;;;15.76;100.00;100849.84;5093044;28;20027;-45
2022/09/13 02:51:02;;;;;;;15.68;12.65;;;;;;;15.77;99.70;100846.38;5092336;28;20035;-45
2022/09/13 02:53:44;;;;;;;16.08;12.10;;;;;;;15.82;97.63;100854.25;5092881;28;20482;-45
2022/09/13 02:56:30;;;;;;;15.40;12.68;;;;;;;15.88;95.90;100848.22;5095331;28;20437;-44
2022/09/13 02:59:01;;;;;;;16.40;13.38;;;;;;;15.95;95.22;100850.03;5097115;28;20066;-45
2022/09/13 03:01:27;;;;;;;17.95;13.40;;;;;;;16.05;94.12;100853.53;5097128;28;20060;-44
2022/09/13 03:03:53;;;;;;;16.58;12.15;;;;;;;16.07;92.94;100857.88;5096566;28;20067;-44
2022/09/13 03:06:26;;;;;;;16.00;12.68;;;;;;;16.15;92.72;100867.47;5096807;28;20066;-45
2022/09/13 03:08:54;;;;;;;15.73;12.05;;;;;;;16.19;92.82;100858.84;5097223;28;20046;-44
2022/09/13 03:11:43;;;;;;;17.02;11.48;;;;;;;16.25;90.96;100859.75;5095962;28;20509;-45
2022/09/13 03:14:26;;;;;;;15.18;11.65;;;;;;;16.25;91.07;100859.75;5097027;28;20111;-44
2022/09/13 03:17:03;;;;;;;13.75;11.63;;;;;;;16.28;90.60;100858.88;5097011;28;20024;-46
2022/09/13 03:19:47;;;;;;;17.02;11.15;;;;;;;16.28;90.85;100851.09;5095979;28;20115;-47
2022/09/13 03:22:45;;;;;;;16.50;10.90;;;;;;;16.29;90.64;100850.22;5096583;28;20028;-46
2022/09/13 03:25:29;;;;;;;15.40;10.98;;;;;;;16.28;91.74;100845.88;5096041;28;20069;-44
2022/09/13 03:28:01;;;;;;;15.98;10.85;;;;;;;16.23;91.49;100834.59;5096612;28;20364;-47
2022/09/13 03:30:26;;;;;;;18.70;11.27;;;;;;;16.27;91.58;100838.97;5096470;28;20024;-49
2022/09/13 03:33:02;;;;;;;16.08;11.73;;;;;;;16.17;91.60;100844.97;5095841;28;20410;-45
2022/09/13 03:35:57;;;;;;;15.40;11.48;;;;;;;16.11;92.83;100851.88;5096395;28;20471;-44
2022/09/13 03:38:54;;;;;;;13.57;11.25;;;;;;;16.12;92.85;100847.53;5065023;28;20398;-45
2022/09/13 03:41:23;;;;;;;;;;;;;;;16.18;92.34;100846.69;5095754;28;20063;-45
2022/09/13 03:43:54;;;;;;;12.88;11.07;;;;;;;16.06;92.66;100847.47;5096339;28;19980;-48
2022/09/13 03:46:33;;;;;;;17.85;11.30;;;;;;;16.04;93.12;100842.28;5095310;28;20368;-46
2022/09/13 03:49:03;;;;;;;14.50;11.20;;;;;;;16.06;93.13;100840.56;5096299;28;20028;-45
2022/09/13 03:51:30;;;;;;;13.65;10.40;;;;;;;16.06;93.13;100839.69;5096129;28;20036;-48
2022/09/13 03:54:00;;;;;;;14.55;10.93;;;;;;;16.00;93.78;100837.94;5095632;28;20095;-46
2022/09/13 03:56:25;;;;;;;18.23;11.38;;;;;;;16.01;92.78;100831.88;5096257;28;20020;-45
2022/09/13 03:58:51;;;;;;;12.95;10.55;;;;;;;16.00;94.24;100832.72;5096110;28;20031;-45
2022/09/13 04:01:21;;;;;;;15.35;11.27;;;;;;;16.00;94.30;100834.44;5095016;28;20020;-46
2022/09/13 04:03:46;;;;;;;12.95;10.63;;;;;;;15.94;94.10;100843.06;5095991;28;20024;-46
2022/09/13 04:06:12;;;;;;;16.25;10.68;;;;;;;15.92;93.86;100836.97;5095687;28;20032;-45
2022/09/13 04:08:37;;;;;;;14.10;11.20;;;;;;;15.95;93.45;100842.22;5094427;28;20051;-45
2022/09/13 04:11:03;;;;;;;14.50;10.95;;;;;;;15.88;93.24;100848.22;5095634;28;20032;-45
2022/09/13 04:13:28;;;;;;;13.82;11.07;;;;;;;15.75;94.97;100849.81;5095765;28;20021;-44
2022/09/13 04:15:54;;;;;;;12.82;10.82;;;;;;;15.68;95.65;100855.84;5095140;28;20115;-44
2022/09/13 04:18:19;;;;;;;14.68;11.60;;;;;;;15.70;94.39;100862.78;5095527;28;20356;-45
2022/09/13 04:20:53;;;;;;;17.63;11.75;;;;;;;15.63;95.37;100869.66;5098673;28;20118;-44
2022/09/13 04:23:18;;;;;;;17.23;11.77;;;;;;;15.61;94.74;100863.56;5096255;28;20034;-44
2022/09/13 04:25:45;;;;;;;15.60;11.98;;;;;;;15.55;95.25;100870.44;5096278;28;20024;-45
2022/09/13 04:28:10;;;;;;;17.35;12.07;;;;;;;15.52;96.64;100867.78;5095137;28;20784;-44
2022/09/13 04:30:36;;;;;;;18.55;12.20;;;;;;;15.40;96.22;100872.03;5095407;28;20027;-46
2022/09/13 04:33:01;;;;;;;15.70;12.48;;;;;;;15.39;96.32;100870.28;5095269;28;20052;-45
2022/09/13 04:35:27;;;;;;;15.13;12.35;;;;;;;15.34;97.45;100869.38;5095007;28;20086;-44
2022/09/13 04:37:57;;;;;;;18.98;12.98;;;;;;;15.24;98.33;100870.13;5095482;28;20103;-45
2022/09/13 04:40:23;;;;;;;16.13;12.50;;;;;;;15.27;99.21;100876.22;5095159;28;20032;-45
2022/09/13 04:42:48;;;;;;;18.90;12.23;;;;;;;15.28;99.63;100882.28;5094783;28;20024;-45
2022/09/13 04:45:13;;;;;;;15.48;12.30;;;;;;;15.27;99.05;100881.44;5094871;28;20391;-45
2022/09/13 04:47:38;;;;;;;18.83;12.45;;;;;;;15.29;98.39;100876.25;5095141;28;20030;-44
2022/09/13 04:50:04;;;;;;;20.92;12.75;;;;;;;15.35;98.97;100878.91;5094209;28;20487;-45
2022/09/13 04:52:29;;;;;;;16.05;12.43;;;;;;;15.38;99.30;100883.28;5094984;28;20060;-48
2022/09/13 04:54:57;;;;;;;15.60;12.18;;;;;;;15.35;99.48;100886.69;5095121;28;20050;-45
2022/09/13 04:57:22;;;;;;;;;;;;;;;15.45;97.38;100880.75;5094491;28;20051;-44
2022/09/13 04:59:47;;;;;;;16.57;13.03;;;;;;;15.43;98.85;100882.44;5094819;28;20020;-45
2022/09/13 05:02:13;;;;;;;17.70;12.45;;;;;;;15.36;99.80;100880.63;5094460;28;20681;-46
2022/09/13 05:04:38;;;;;;;18.35;12.90;;;;;;;15.37;99.17;100887.56;5094311;28;20032;-45
2022/09/13 05:07:03;;;;;;;16.33;12.57;;;;;;;15.36;99.35;100885.81;5094651;28;20024;-45
2022/09/13 05:09:29;;;;;;;16.33;12.38;;;;;;;15.28;100.00;100888.34;5094834;28;20032;-48
2022/09/13 05:11:54;;;;;;;15.93;13.05;;;;;;;15.26;100.00;100890.06;5094231;28;20020;-45
2022/09/13 05:14:19;;;;;;;18.25;12.43;;;;;;;15.22;100.00;100879.63;5094392;28;20453;-46
2022/09/13 05:16:45;;;;;;;15.43;12.80;;;;;;;15.24;100.00;100885.72;5094502;28;20371;-44
2022/09/13 05:19:11;;;;;;;15.05;12.75;;;;;;;15.24;100.00;100885.72;5093158;28;20036;-44
2022/09/13 05:21:36;;;;;;;17.73;13.20;;;;;;;15.20;100.00;100879.59;5094353;28;20374;-44
2022/09/13 05:24:01;;;;;;;19.38;13.43;;;;;;;15.21;100.00;100885.66;5094262;28;20020;-45
2022/09/13 05:26:30;;;;;;;16.83;12.35;;;;;;;15.21;100.00;100886.53;5093743;28;20030;-45
2022/09/13 05:28:55;;;;;;;17.88;12.70;;;;;;;15.18;100.00;100885.63;5094320;28;20024;-46
2022/09/13 05:31:30;;;;;;;18.65;12.75;;;;;;;15.23;100.00;100889.16;5093352;28;20834;-45
2022/09/13 05:34:02;;;;;;;15.68;12.68;;;;;;;15.27;100.00;100886.63;5094421;28;20478;-45
2022/09/13 05:36:28;;;;;;;20.88;13.35;;;;;;;15.27;100.00;100891.81;5094241;28;20390;-46
2022/09/13 05:38:54;;;;;;;16.85;13.38;;;;;;;15.29;100.00;100894.41;5093428;28;20503;-46
2022/09/13 05:41:20;;;;;;;15.10;13.10;;;;;;;15.32;100.00;100894.44;5093940;28;20024;-45
2022/09/13 05:43:45;;;;;;;16.88;13.98;;;;;;;15.35;100.00;100893.59;5093834;28;20455;-46
2022/09/13 05:46:13;;;;;;;18.95;14.40;;;;;;;15.38;100.00;100902.31;5093220;28;20031;-44
2022/09/13 05:48:39;;;;;;;19.52;13.80;;;;;;;15.45;100.00;100891.13;5093938;28;20375;-44
2022/09/13 05:51:16;;;;;;;20.48;13.35;;;;;;;15.46;100.00;100892.84;5093592;28;20031;-45
2022/09/13 05:53:44;;;;;;;15.55;13.35;;;;;;;15.56;100.00;100893.81;5093408;28;20031;-46
2022/09/13 05:56:13;;;;;;;;;;;;;;;15.63;100.00;100892.16;5094020;28;20073;-45
2022/09/13 05:58:40;;;;;;;15.32;12.73;;;;;;;15.59;100.00;100898.19;5093958;28;19916;-45
2022/09/13 06:01:06;;;;;;;18.83;14.13;;;;;;;15.60;100.00;100894.72;5092935;28;20020;-46
2022/09/13 06:03:32;;;;;;;17.17;13.70;;;;;;;15.59;100.00;100900.78;5093845;28;20020;-45
2022/09/13 06:05:58;;;;;;;16.75;12.80;;;;;;;15.72;100.00;100892.22;5093758;28;20028;-45
2022/09/13 06:08:25;;;;;;;18.85;13.48;;;;;;;15.76;100.00;100894.03;5092678;28;20024;-46
2022/09/13 06:10:56;;;;;;;25.23;14.75;;;;;;;15.80;100.00;100888.00;5093559;28;20043;-45
2022/09/13 06:13:22;;;;;;;17.73;13.45;;;;;;;15.84;100.00;100888.03;5092947;28;20058;-44
2022/09/13 06:15:47;;;;;;;19.63;13.90;;;;;;;15.88;100.00;100884.59;5093602;28;20109;-44
2022/09/13 06:18:12;;;;;;;18.58;12.60;;;;;;;15.95;100.00;100886.41;5093325;28;20109;-45
2022/09/13 06:20:38;;;;;;;21.38;14.13;;;;;;;16.03;100.00;100891.66;5093249;28;20062;-49
2022/09/13 06:23:03;;;;;;;17.50;14.88;;;;;;;16.13;100.00;100893.47;5093026;28;20043;-44
2022/09/13 06:25:29;;;;;;;16.10;13.57;;;;;;;16.23;99.50;100891.78;5093338;28;20383;-45
2022/09/13 06:27:55;;;;;;;19.52;14.63;;;;;;;16.33;98.01;100896.19;5092801;28;20020;-46
2022/09/13 06:30:20;;;;;;;18.83;13.50;;;;;;;16.38;98.92;100894.50;5092291;28;20034;-43
2022/09/13 06:32:45;;;;;;;18.13;14.50;;;;;;;16.42;98.55;100888.47;5101882;28;20023;-44
2022/09/13 06:35:10;;;;;;;18.85;14.23;;;;;;;16.44;96.49;100891.94;5112035;28;20023;-45
2022/09/13 06:37:36;;;;;;;19.35;15.13;;;;;;;16.51;96.94;100890.25;5100162;28;20509;-43
2022/09/13 06:40:04;;;;;;;21.00;15.13;;;;;;;16.54;97.77;100889.38;5109051;28;20027;-43
2022/09/13 06:42:29;;;;;;;19.48;14.55;;;;;;;16.52;96.36;100880.72;5112536;28;20015;-44
2022/09/13 06:44:54;;;;;;;17.77;15.25;;;;;;;16.52;97.64;100883.31;5112882;28;20039;-43
2022/09/13 06:47:20;;;;;;;18.48;15.40;;;;;;;16.52;99.65;100878.97;5112828;28;20489;-44
2022/09/13 06:49:45;;;;;;;20.25;14.98;;;;;;;16.52;99.55;100883.31;5111935;28;20031;-44
2022/09/13 06:52:10;;;;;;;20.95;16.38;;;;;;;16.51;99.14;100885.03;5112810;28;20373;-43
2022/09/13 06:54:36;;;;;;;20.63;16.23;;;;;;;16.54;97.95;100881.59;5112986;28;20367;-43
2022/09/13 06:57:02;;;;;;;24.98;17.23;;;;;;;16.56;98.28;100885.06;5112140;28;20065;-45
2022/09/13 06:59:27;;;;;;;23.75;17.17;;;;;;;16.58;96.78;100883.38;5112932;28;20024;-43
2022/09/13 07:01:52;;;;;;;20.65;16.92;;;;;;;16.63;96.52;100882.53;5112791;28;20066;-44
2022/09/13 07:04:18;;;;;;;22.10;17.08;;;;;;;16.70;97.44;100888.63;5112039;28;20535;-44
2022/09/13 07:06:48;;;;;;;23.05;17.23;;;;;;;16.76;96.17;100893.84;5112637;28;20076;-45
2022/09/13 07:09:20;;;;;;;20.58;16.98;;;;;;;16.87;95.63;100885.22;5112607;28;20031;-44
2022/09/13 07:11:47;;;;;;;22.45;17.67;;;;;;;16.95;93.86;100888.75;5099862;28;20039;-43
2022/09/13 07:14:23;;;;;;;21.80;18.88;;;;;;;17.05;94.34;100894.88;5095003;28;20028;-44
2022/09/13 07:16:50;;;;;;;25.90;18.92;;;;;;;17.19;93.67;100887.13;5112062;28;20011;-43
2022/09/13 07:19:26;;;;;;;25.13;19.50;;;;;;;17.34;93.40;100888.88;5109614;28;20034;-43
2022/09/13 07:21:52;;;;;;;28.83;19.60;;;;;;;17.49;92.94;100886.31;5101667;28;20066;-43
2022/09/13 07:24:19;;;;;;;24.98;19.77;;;;;;;17.57;91.91;100886.31;5099320;28;20430;-44
2022/09/13 07:26:45;;;;;;;25.30;19.98;;;;;;;17.72;92.16;100893.28;5100780;28;20103;-43
2022/09/13 07:29:17;;;;;;;28.35;20.50;;;;;;;17.83;92.65;100896.78;5106790;28;20030;-43
2022/09/13 07:31:45;;;;;;;26.20;21.58;;;;;;;17.97;91.78;100894.19;5111662;28;20063;-43
2022/09/13 07:34:14;;;;;;;25.90;21.20;;;;;;;18.15;91.56;100897.66;5112061;28;20022;-44
2022/09/13 07:36:40;;;;;;;25.92;21.08;;;;;;;18.20;91.14;100895.91;5108126;28;20024;-43
2022/09/13 07:39:05;;;;;;;27.25;22.65;;;;;;;18.38;90.37;100906.31;5097236;28;20081;-43
2022/09/13 07:41:32;;;;;;;29.05;22.50;;;;;;;18.55;90.32;100905.41;5108662;28;20034;-44
2022/09/13 07:44:00;;;;;;;29.40;22.10;;;;;;;18.67;90.35;100908.00;5103461;28;20042;-44
2022/09/13 07:46:32;;;;;;;29.08;23.13;;;;;;;18.86;89.76;100913.16;5112950;28;20293;-43
2022/09/13 07:49:00;;;;;;;29.08;23.42;;;;;;;19.00;89.43;100915.75;5109482;28;20371;-43
2022/09/13 07:51:31;;;;;;;34.55;26.15;;;;;;;19.08;88.90;100914.84;5105495;28;20080;-43
2022/09/13 07:53:58;;;;;;;36.00;26.67;;;;;;;19.16;88.22;100921.75;5108304;28;20024;-43
2022/09/13 07:56:29;;;;;;;29.40;24.83;;;;;;;19.26;88.20;100926.06;5112046;28;20461;-43
2022/09/13 07:58:55;;;;;;;32.97;25.83;;;;;;;19.28;87.18;100924.31;5103692;28;20038;-43
2022/09/13 08:01:26;;;;;;;29.42;24.20;;;;;;;19.41;87.23;100925.97;5115937;28;20028;-43
2022/09/13 08:03:59;;;;;;;34.83;25.80;;;;;;;19.51;88.16;100923.31;5114256;27;20020;-43
2022/09/13 08:06:27;;;;;;;36.72;28.13;;;;;;;19.68;87.50;100921.47;5114825;28;20046;-44
2022/09/13 08:08:52;;;;;;;38.20;29.63;;;;;;;19.74;86.23;100920.53;5115972;28;20107;-43
2022/09/13 08:11:19;;;;;;;39.63;29.10;;;;;;;19.90;85.04;100927.44;5111636;28;20115;-44
2022/09/13 08:13:46;;;;;;;36.85;30.23;;;;;;;20.02;85.31;100921.22;5112268;28;20390;-43
2022/09/13 08:16:12;;;;;;;35.40;27.08;;;;;;;20.09;83.37;100924.69;5108235;28;20430;-44
2022/09/13 08:18:42;;;;;;;35.45;28.80;;;;;;;20.19;84.19;100925.44;5115756;28;20020;-44
2022/09/13 08:21:07;;;;;;;38.85;30.85;;;;;;;20.29;83.93;100921.88;5114705;28;20043;-44
2022/09/13 08:23:33;;;;;;;37.55;29.45;;;;;;;20.35;83.16;100924.44;5115572;28;20020;-45
2022/09/13 08:26:02;;;;;;;45.53;30.85;;;;;;;20.38;83.45;100926.16;5115282;28;20045;-44
2022/09/13 08:28:28;;;;;;;41.50;31.83;;;;;;;20.44;83.10;100927.81;5103000;28;20019;-46
2022/09/13 08:30:53;;;;;;;39.22;30.23;;;;;;;20.47;83.29;100938.28;5114539;28;20104;-45
2022/09/13 08:33:19;;;;;;;40.90;30.67;;;;;;;20.62;82.19;100938.13;5115210;28;20034;-45
2022/09/13 08:35:51;;;;;;;42.47;30.63;;;;;;;20.75;82.88;100938.00;5114296;28;20066;-45
2022/09/13 08:38:17;;;;;;;36.45;29.50;;;;;;;20.69;81.19;100939.78;5114994;28;20053;-44
2022/09/13 08:40:51;;;;;;;37.00;28.92;;;;;;;20.97;80.79;100939.50;5115109;28;20481;-45
2022/09/13 08:43:25;;;;;;;38.38;29.73;;;;;;;21.00;79.88;100942.06;5114260;28;20031;-44
2022/09/13 08:46:17;;;;;;;37.03;29.25;;;;;;;21.15;81.23;100940.16;5107522;28;20047;-44
2022/09/13 08:48:48;;;;;;;36.20;28.63;;;;;;;21.24;79.85;100947.91;5103192;28;20028;-44
2022/09/13 08:51:27;;;;;;;36.92;28.45;;;;;;;21.30;79.56;100942.56;5113280;28;20057;-43
2022/09/13 08:53:52;;;;;;;36.90;29.23;;;;;;;21.22;78.38;100945.28;5114377;28;20031;-43
2022/09/13 08:56:26;;;;;;;38.78;28.77;;;;;;;21.30;79.71;100947.81;5114102;28;20023;-43
2022/09/13 08:59:15;;;;;;;36.58;28.77;;;;;;;21.35;80.10;100945.13;5103501;28;20451;-44
2022/09/13 09:02:07;;;;;;;37.38;29.63;;;;;;;21.31;79.16;100940.81;5108989;28;20032;-44
2022/09/13 09:04:38;;;;;;;36.33;28.92;;;;;;;21.52;78.51;100937.03;5107952;28;20088;-44
2022/09/13 09:07:11;;;;;;;34.50;28.42;;;;;;;21.79;77.71;100933.16;5104954;28;20032;-43
2022/09/13 09:09:48;;;;;;;37.83;29.27;;;;;;;21.94;76.91;100939.06;5113711;28;20032;-44
2022/09/13 09:12:40;;;;;;;37.63;28.17;;;;;;;22.13;76.44;100929.09;5114051;28;20356;-45
2022/09/13 09:15:14;;;;;;;35.90;26.85;;;;;;;22.52;76.89;100921.47;5104262;27;20011;-43
2022/09/13 09:17:57;;;;;;;38.25;27.83;;;;;;;22.52;76.74;100924.09;5106723;28;20038;-43
2022/09/13 09:20:47;;;;;;;40.78;28.23;;;;;;;22.80;74.92;100919.16;5109792;27;20068;-44
2022/09/13 09:23:22;;;;;;;38.58;27.77;;;;;;;22.64;74.62;100918.56;5099823;28;20016;-46
2022/09/13 09:26:04;;;;;;;36.03;26.98;;;;;;;23.03;72.78;100917.78;5096653;28;20118;-45
2022/09/13 09:28:30;;;;;;;34.60;26.77;;;;;;;22.99;72.41;100913.50;5105990;28;20016;-45
2022/09/13 09:31:07;;;;;;;35.08;26.77;;;;;;;23.20;71.61;100919.22;5107316;28;20069;-43
2022/09/13 09:33:53;;;;;;;35.63;27.08;;;;;;;23.27;71.66;100921.69;5105649;28;20020;-43
2022/09/13 09:36:36;;;;;;;30.23;23.10;;;;;;;23.72;72.14;100922.41;5097631;28;20069;-45
2022/09/13 09:39:04;;;;;;;31.17;20.55;;;;;;;23.74;68.86;100925.91;5112771;28;20020;-44
2022/09/13 09:41:34;;;;;;;26.35;17.70;;;;;;;23.70;69.47;100930.34;5113992;28;20042;-44
2022/09/13 09:44:26;;;;;;;25.42;18.15;;;;;;;23.71;70.92;100925.97;5101303;28;20062;-44
2022/09/13 09:47:15;;;;;;;29.10;20.10;;;;;;;23.81;69.97;100932.75;5106619;28;20042;-44
2022/09/13 09:52:34;;;;;;;27.95;20.77;;;;;;;24.09;68.87;100926.81;5102054;28;20127;-43
2022/09/13 09:55:13;;;;;;;27.35;19.08;;;;;;;24.44;68.44;100925.03;5110774;28;20035;-44
2022/09/13 09:57:49;;;;;;;22.63;17.08;;;;;;;24.73;66.52;100923.41;5111365;28;20114;-45
2022/09/13 10:00:15;;;;;;;24.27;16.80;;;;;;;25.06;63.45;100920.69;5110988;28;20031;-45
2022/09/13 10:02:44;;;;;;;22.45;15.68;;;;;;;25.10;63.29;100919.66;5102844;28;20025;-45
2022/09/13 10:05:13;;;;;;;25.00;15.32;;;;;;;25.50;63.10;100915.84;5107698;28;20493;-45
2022/09/13 10:07:39;;;;;;;30.20;16.85;;;;;;;26.11;60.71;100923.53;5108593;28;20048;-44
2022/09/13 10:10:19;;;;;;;23.10;17.63;;;;;;;26.01;60.33;100926.53;5103790;28;20115;-44
2022/09/13 10:12:51;;;;;;;24.25;15.98;;;;;;;25.63;61.42;100922.47;5104713;28;20107;-44
2022/09/13 10:15:24;;;;;;;22.83;16.70;;;;;;;25.86;61.46;100927.91;5109387;28;20107;-46
2022/09/13 10:18:14;;;;;;;24.10;15.50;;;;;;;26.03;61.66;100922.03;5109504;28;20478;-45
2022/09/13 10:20:40;;;;;;;22.95;16.38;;;;;;;25.63;60.47;100919.81;5109563;28;20386;-44
2022/09/13 10:23:15;;;;;;;22.92;14.85;;;;;;;25.27;61.81;100912.13;5107572;28;20023;-45
2022/09/13 10:25:44;;;;;;;20.38;13.95;;;;;;;25.79;60.38;100914.03;5110098;28;20019;-45
2022/09/13 10:28:15;;;;;;;20.52;14.18;;;;;;;26.57;58.59;100909.63;5095443;28;20039;-45
2022/09/13 10:31:05;;;;;;;17.90;12.95;;;;;;;26.75;60.56;100914.28;5110130;28;20145;-44
2022/09/13 10:33:30;;;;;;;20.73;14.00;;;;;;;26.07;58.88;100910.53;5099208;28;20051;-44
2022/09/13 10:35:59;;;;;;;21.10;13.87;;;;;;;25.99;58.43;100915.16;5096931;28;20066;-45
2022/09/13 10:38:29;;;;;;;15.50;10.52;;;;;;;25.66;59.40;100915.38;5112007;28;20039;-47
2022/09/13 10:40:55;;;;;;;17.08;10.40;;;;;;;25.25;61.85;100905.16;5104808;28;20031;-45
2022/09/13 10:43:23;;;;;;;16.38;10.88;;;;;;;24.70;62.34;100907.66;5107912;28;20084;-47
2022/09/13 10:45:50;;;;;;;18.27;11.43;;;;;;;24.33;63.06;100910.38;5102112;28;20517;-44
2022/09/13 10:48:18;;;;;;;16.50;10.20;;;;;;;23.97;65.25;100918.31;5104423;28;20031;-45
2022/09/13 10:51:03;;;;;;;16.38;9.93;;;;;;;23.70;66.65;100911.94;5105851;28;20161;-45
2022/09/13 10:53:36;;;;;;;14.05;9.27;;;;;;;23.56;66.88;100908.78;5111843;28;20031;-44
2022/09/13 10:56:01;;;;;;;14.02;9.05;;;;;;;23.61;68.49;100905.13;5099430;28;20046;-44
2022/09/13 10:58:27;;;;;;;14.75;9.25;;;;;;;23.82;65.43;100903.75;5107999;28;20024;-44
2022/09/13 11:01:40;;;;;;;12.00;7.93;;;;;;;24.53;65.12;100911.63;5098414;28;20023;-45
2022/09/13 11:04:27;;;;;;;14.82;8.65;;;;;;;24.86;63.10;100903.69;5058074;28;20142;-43
2022/09/13 11:06:52;;;;;;;;;;;;;;;25.50;63.22;100899.16;5106644;28;20107;-44
2022/09/13 11:09:37;;;;;;;9.55;6.88;;;;;;;25.33;60.84;100887.31;5111895;28;19912;-44
2022/09/13 11:12:25;;;;;;;11.95;7.45;;;;;;;25.68;61.29;100887.13;5111084;28;20425;-45
2022/09/13 11:15:02;;;;;;;13.75;7.32;;;;;;;25.91;59.44;100878.44;5103838;28;20038;-44
2022/09/13 11:18:03;;;;;;;13.20;7.88;;;;;;;25.75;59.52;100884.22;5106578;28;20028;-44
2022/09/13 11:21:00;;;;;;;11.70;6.78;;;;;;;25.65;59.52;100882.81;5105836;28;20077;-45
2022/09/13 11:23:34;;;;;;;12.13;6.05;;;;;;;25.51;59.62;100877.97;5114740;28;20024;-48
2022/09/13 11:26:12;;;;;;;12.05;6.32;;;;;;;25.50;57.43;100873.63;5117264;28;20066;-46
2022/09/13 11:28:51;;;;;;;11.15;6.07;;;;;;;25.48;58.30;100875.44;5115335;27;20493;-45
2022/09/13 11:31:57;;;;;;;10.77;6.03;;;;;;;26.21;58.33;100875.69;5097093;28;20047;-46
2022/09/13 11:34:34;;;;;;;12.57;6.95;;;;;;;26.43;56.50;100865.19;5104317;28;20509;-48